Time;durP1;ratioP1;P1;durP2;ratioP2;P2;SDS_P1;SDS_P2;PMS_P1;PMS_P2;Temp;Humidity;BMP_temperature;BMP_pressure;BME280_temperature;BME280_humidity;BME280_pressure;Samples;Min_cycle;Max_cycle;Signal;HPM_P1;HPM_P2
2021/04/13 00:00:00;;;;;;;5.43;4.20;;;;;;;;;;4961631;28;20227;-77
2021/04/13 00:02:35;;;;;;;4.63;3.92;;;;;;;;;;4972836;28;20673;-78
2021/04/13 00:05:09;;;;;;;5.10;4.50;;;;;;;;;;4970803;28;20237;-76
2021/04/13 00:07:36;;;;;;;6.85;4.55;;;;;;;;;;4956879;28;20636;-77
2021/04/13 00:10:12;;;;;;;4.40;4.00;;;;;;;;;;4951618;28;20260;-76
2021/04/13 00:12:38;;;;;;;8.73;4.97;;;;;;;;;;4968976;28;20172;-79
2021/04/13 00:15:12;;;;;;;5.30;4.22;;;;;;;;;;4963978;28;20646;-72
2021/04/13 00:17:40;;;;;;;5.65;5.10;;;;;;;;;;4974835;28;20175;-73
2021/04/13 00:20:06;;;;;;;4.43;3.97;;;;;;;;;;4973881;28;20258;-80
2021/04/13 00:22:32;;;;;;;5.00;4.13;;;;;;;;;;4946204;28;20284;-81
2021/04/13 00:24:58;;;;;;;5.25;4.75;;;;;;;;;;4961919;28;20435;-79
2021/04/13 00:27:25;;;;;;;5.25;4.20;;;;;;;;;;4966465;28;20172;-82
2021/04/13 00:29:51;;;;;;;3.97;3.65;;;;;;;;;;4962501;28;20370;-79
2021/04/13 00:32:21;;;;;;;5.55;4.22;;;;;;;;;;4968948;28;20627;-80
2021/04/13 00:35:08;;;;;;;4.70;4.30;;;;;;;;;;4967763;28;20206;-74
2021/04/13 00:37:34;;;;;;;5.25;4.28;;;;;;;;;;4962593;28;20250;-78
2021/04/13 00:40:19;;;;;;;4.03;3.43;;;;;;;;;;4976401;28;20183;-77
2021/04/13 00:42:45;;;;;;;8.25;4.57;;;;;;;;;;4968725;28;20435;-81
2021/04/13 00:45:14;;;;;;;6.80;4.45;;;;;;;;;;4964348;28;20227;-80
2021/04/13 00:47:41;;;;;;;4.10;3.70;;;;;;;;;;4970200;28;20266;-79
2021/04/13 00:50:09;;;;;;;5.25;4.47;;;;;;;;;;4962409;28;20178;-79
2021/04/13 00:52:37;;;;;;;5.32;3.78;;;;;;;;;;4958543;28;20283;-80
2021/04/13 00:55:06;;;;;;;4.03;3.63;;;;;;;;;;4961348;28;20215;-78
2021/04/13 00:57:43;;;;;;;5.05;3.50;;;;;;;;;;4964020;28;20716;-78
2021/04/13 01:00:12;;;;;;;5.15;4.65;;;;;;;;;;4960904;28;20229;-76
2021/04/13 01:02:38;;;;;;;6.70;4.97;;;;;;;;;;4957092;28;20210;-79
2021/04/13 01:05:17;;;;;;;4.43;4.03;;;;;;;;;;4963006;28;20176;-78
2021/04/13 01:07:44;;;;;;;4.15;3.63;;;;;;;;;;4963164;28;20195;-81
2021/04/13 01:10:13;;;;;;;5.53;4.90;;;;;;;;;;4968274;28;20254;-80
2021/04/13 01:12:41;;;;;;;8.15;4.22;;;;;;;;;;4968796;28;20179;-79
2021/04/13 01:15:08;;;;;;;5.95;4.50;;;;;;;;;;4971122;28;20587;-79
2021/04/13 01:17:35;;;;;;;4.43;4.03;;;;;;;;;;4957262;28;20211;-77
2021/04/13 01:20:10;;;;;;;4.95;4.45;;;;;;;;;;4963949;28;20519;-78
2021/04/13 01:22:52;;;;;;;5.85;3.85;;;;;;;;;;4969026;28;20278;-77
2021/04/13 01:25:18;;;;;;;5.70;4.30;;;;;;;;;;4965632;28;20194;-78
2021/04/13 01:27:52;;;;;;;4.80;3.97;;;;;;;;;;4963641;28;20254;-81
2021/04/13 01:30:18;;;;;;;4.97;4.43;;;;;;;;;;4957080;28;20786;-79
2021/04/13 01:32:45;;;;;;;4.68;4.03;;;;;;;;;;4959111;28;20614;-79
2021/04/13 01:35:14;;;;;;;4.60;4.20;;;;;;;;;;4962906;28;20683;-78
2021/04/13 01:37:56;;;;;;;4.43;4.03;;;;;;;;;;4970478;28;20213;-76
2021/04/13 01:40:40;;;;;;;7.10;4.95;;;;;;;;;;4964398;28;20187;-75
2021/04/13 01:43:07;;;;;;;8.23;5.13;;;;;;;;;;4961358;28;20183;-75
2021/04/13 01:45:33;;;;;;;5.80;4.18;;;;;;;;;;4972686;28;20670;-77
2021/04/13 01:47:59;;;;;;;7.20;4.75;;;;;;;;;;4959046;28;20203;-77
2021/04/13 01:50:34;;;;;;;6.93;5.63;;;;;;;;;;4945155;28;20179;-80
2021/04/13 01:53:06;;;;;;;5.20;4.80;;;;;;;;;;4962405;28;20286;-77
2021/04/13 01:55:34;;;;;;;6.35;4.90;;;;;;;;;;4960291;28;20214;-78
2021/04/13 01:58:09;;;;;;;6.78;5.70;;;;;;;;;;4961930;28;20571;-77
2021/04/13 02:00:43;;;;;;;5.45;4.95;;;;;;;;;;4968894;28;20202;-79
2021/04/13 02:03:12;;;;;;;6.55;4.68;;;;;;;;;;4966729;28;20531;-80
2021/04/13 02:05:41;;;;;;;8.05;5.00;;;;;;;;;;4942088;28;20180;-80
2021/04/13 02:08:27;;;;;;;5.47;4.97;;;;;;;;;;4969287;28;20172;-78
2021/04/13 02:10:57;;;;;;;6.00;5.40;;;;;;;;;;4949579;29;20266;-81
2021/04/13 02:13:34;;;;;;;6.10;5.45;;;;;;;;;;4966236;28;20579;-79
2021/04/13 02:16:03;;;;;;;6.20;5.60;;;;;;;;;;4958587;28;20207;-78
2021/04/13 02:18:34;;;;;;;5.47;4.78;;;;;;;;;;4959201;28;20265;-78
2021/04/13 02:21:03;;;;;;;6.95;6.30;;;;;;;;;;4976382;28;20204;-78
2021/04/13 02:23:31;;;;;;;6.25;5.57;;;;;;;;;;4950916;28;20188;-82
2021/04/13 02:26:01;;;;;;;4.85;4.43;;;;;;;;;;4964497;28;20176;-80
2021/04/13 02:28:28;;;;;;;8.23;5.30;;;;;;;;;;4961826;28;20179;-82
2021/04/13 02:30:55;;;;;;;7.38;4.50;;;;;;;;;;4968471;28;20191;-82
2021/04/13 02:33:24;;;;;;;5.30;4.10;;;;;;;;;;4967433;28;20180;-79
2021/04/13 02:35:51;;;;;;;5.53;5.03;;;;;;;;;;4964832;28;20266;-78
2021/04/13 02:38:19;;;;;;;10.50;5.30;;;;;;;;;;4940536;28;20179;-81
2021/04/13 02:40:54;;;;;;;5.03;4.20;;;;;;;;;;4974034;28;20178;-80
2021/04/13 02:43:27;;;;;;;4.53;4.10;;;;;;;;;;4972760;28;20727;-81
2021/04/13 02:45:54;;;;;;;5.45;4.60;;;;;;;;;;4971590;28;20262;-80
2021/04/13 02:48:31;;;;;;;6.07;4.90;;;;;;;;;;4972685;28;20183;-78
2021/04/13 02:51:00;;;;;;;6.68;5.25;;;;;;;;;;4966756;28;20187;-80
2021/04/13 02:53:33;;;;;;;5.07;4.60;;;;;;;;;;4970719;28;20694;-80
2021/04/13 02:56:00;;;;;;;4.90;4.50;;;;;;;;;;4966338;28;20269;-81
2021/04/13 02:58:29;;;;;;;5.97;5.07;;;;;;;;;;4953774;28;20285;-80
2021/04/13 03:00:57;;;;;;;6.15;4.05;;;;;;;;;;4962048;28;20266;-80
2021/04/13 03:03:29;;;;;;;7.22;5.20;;;;;;;;;;4962313;28;20278;-80
2021/04/13 03:05:56;;;;;;;4.93;4.45;;;;;;;;;;4963182;28;20679;-79
2021/04/13 03:08:22;;;;;;;6.63;5.78;;;;;;;;;;4961461;28;20625;-80
2021/04/13 03:10:51;;;;;;;7.05;5.38;;;;;;;;;;4954743;28;20179;-80
2021/04/13 03:13:19;;;;;;;6.20;5.25;;;;;;;;;;4963298;28;20179;-78
2021/04/13 03:15:53;;;;;;;6.95;5.20;;;;;;;;;;4971942;28;20561;-78
2021/04/13 03:18:20;;;;;;;6.22;5.63;;;;;;;;;;4961969;28;20186;-80
2021/04/13 03:20:48;;;;;;;6.57;5.70;;;;;;;;;;4956022;28;20634;-78
2021/04/13 03:23:16;;;;;;;6.75;4.90;;;;;;;;;;4955055;28;20587;-80
2021/04/13 03:25:44;;;;;;;6.50;4.78;;;;;;;;;;4965584;28;20176;-78
2021/04/13 03:28:12;;;;;;;5.35;4.45;;;;;;;;;;4955662;28;20234;-81
2021/04/13 03:30:40;;;;;;;13.38;5.80;;;;;;;;;;4960827;28;20230;-80
2021/04/13 03:33:26;;;;;;;5.90;4.18;;;;;;;;;;4957679;28;20290;-77
2021/04/13 03:35:56;;;;;;;5.00;4.50;;;;;;;;;;4928357;29;20258;-81
2021/04/13 03:38:24;;;;;;;7.43;5.10;;;;;;;;;;4967681;28;20187;-80
2021/04/13 03:40:51;;;;;;;6.10;5.38;;;;;;;;;;4967702;28;20180;-80
2021/04/13 03:43:22;;;;;;;5.30;4.90;;;;;;;;;;4961193;28;20639;-81
2021/04/13 03:45:51;;;;;;;5.20;4.70;;;;;;;;;;4970281;28;20189;-79
2021/04/13 03:48:19;;;;;;;8.30;5.85;;;;;;;;;;4961189;28;20481;-80
2021/04/13 03:50:46;;;;;;;6.35;4.90;;;;;;;;;;4950152;28;20188;-79
2021/04/13 03:53:14;;;;;;;6.50;5.00;;;;;;;;;;4974058;28;20262;-81
2021/04/13 03:55:41;;;;;;;11.27;5.50;;;;;;;;;;4962137;28;20219;-79
2021/04/13 03:58:15;;;;;;;6.68;5.63;;;;;;;;;;4973763;28;20223;-80
2021/04/13 04:00:42;;;;;;;8.10;5.30;;;;;;;;;;4986185;28;20203;-76
2021/04/13 04:03:08;;;;;;;7.35;6.35;;;;;;;;;;4981784;28;20191;-78
2021/04/13 04:05:45;;;;;;;6.70;6.00;;;;;;;;;;4965866;28;20190;-79
2021/04/13 04:08:16;;;;;;;9.70;6.15;;;;;;;;;;4961411;28;20175;-80
2021/04/13 04:10:42;;;;;;;6.78;5.97;;;;;;;;;;4957488;28;20211;-81
2021/04/13 04:13:12;;;;;;;6.77;4.80;;;;;;;;;;4958478;28;20218;-78
2021/04/13 04:16:02;;;;;;;15.18;5.35;;;;;;;;;;4958583;28;20470;-81
2021/04/13 04:18:29;;;;;;;5.55;4.95;;;;;;;;;;4948847;28;20199;-79
2021/04/13 04:20:58;;;;;;;7.45;4.57;;;;;;;;;;4975512;28;20642;-79
2021/04/13 04:23:27;;;;;;;6.65;5.05;;;;;;;;;;4963554;28;20343;-79
2021/04/13 04:25:56;;;;;;;5.82;5.10;;;;;;;;;;4966727;28;20210;-80
2021/04/13 04:28:34;;;;;;;6.15;5.13;;;;;;;;;;4971123;28;20220;-78
2021/04/13 04:31:18;;;;;;;8.60;5.57;;;;;;;;;;4969203;28;20261;-80
2021/04/13 04:33:44;;;;;;;7.30;5.47;;;;;;;;;;4948770;28;20187;-81
2021/04/13 04:36:27;;;;;;;6.13;5.20;;;;;;;;;;4967851;28;20590;-81
2021/04/13 04:38:53;;;;;;;6.03;5.38;;;;;;;;;;4961845;28;20438;-81
2021/04/13 04:41:34;;;;;;;6.15;5.30;;;;;;;;;;4956877;28;20186;-78
2021/04/13 04:44:02;;;;;;;6.72;6.03;;;;;;;;;;4958314;28;20199;-77
2021/04/13 04:46:30;;;;;;;6.18;5.57;;;;;;;;;;4969048;28;20254;-79
2021/04/13 04:49:01;;;;;;;6.50;5.47;;;;;;;;;;4973506;28;20187;-76
2021/04/13 04:51:27;;;;;;;8.95;5.88;;;;;;;;;;4945836;28;20222;-81
2021/04/13 04:53:53;;;;;;;9.43;5.20;;;;;;;;;;4952168;28;20183;-78
2021/04/13 04:56:19;;;;;;;8.10;5.67;;;;;;;;;;4961906;28;20226;-73
2021/04/13 04:58:45;;;;;;;7.97;6.00;;;;;;;;;;4970496;28;20545;-79
2021/04/13 05:01:11;;;;;;;5.50;4.97;;;;;;;;;;4968532;28;20982;-80
2021/04/13 05:03:38;;;;;;;14.13;6.00;;;;;;;;;;4961688;28;20798;-80
2021/04/13 05:06:04;;;;;;;8.00;5.53;;;;;;;;;;4975486;28;20183;-78
2021/04/13 05:08:30;;;;;;;6.00;5.47;;;;;;;;;;4967039;28;20262;-78
2021/04/13 05:10:56;;;;;;;5.80;5.05;;;;;;;;;;4968518;28;20186;-77
2021/04/13 05:13:22;;;;;;;6.23;5.00;;;;;;;;;;4957338;28;20187;-79
2021/04/13 05:15:48;;;;;;;6.57;5.75;;;;;;;;;;4958372;28;20553;-77
2021/04/13 05:18:15;;;;;;;7.22;5.50;;;;;;;;;;4958728;28;20191;-78
2021/04/13 05:20:41;;;;;;;7.32;5.45;;;;;;;;;;4967871;28;20179;-77
2021/04/13 05:23:07;;;;;;;7.30;6.37;;;;;;;;;;4957791;28;20175;-77
2021/04/13 05:25:33;;;;;;;6.32;5.75;;;;;;;;;;4969385;28;20443;-79
2021/04/13 05:28:00;;;;;;;6.07;5.47;;;;;;;;;;4964772;28;20184;-79
2021/04/13 05:30:26;;;;;;;6.38;5.25;;;;;;;;;;4969969;28;20649;-76
2021/04/13 05:32:52;;;;;;;7.50;5.13;;;;;;;;;;4956994;28;20226;-78
2021/04/13 05:35:19;;;;;;;6.22;5.60;;;;;;;;;;4947931;28;20210;-80
2021/04/13 05:37:45;;;;;;;8.88;6.10;;;;;;;;;;4964495;28;20661;-78
2021/04/13 05:40:15;;;;;;;9.52;6.07;;;;;;;;;;4970166;28;20267;-74
2021/04/13 05:42:40;;;;;;;11.63;6.15;;;;;;;;;;4957724;28;20216;-78
2021/04/13 05:45:09;;;;;;;5.55;5.05;;;;;;;;;;4965438;28;20530;-78
2021/04/13 05:47:37;;;;;;;6.40;5.78;;;;;;;;;;4962021;28;20276;-80
2021/04/13 05:50:04;;;;;;;6.50;5.20;;;;;;;;;;4956734;28;20194;-82
2021/04/13 05:52:30;;;;;;;9.30;5.63;;;;;;;;;;4963124;28;20564;-74
2021/04/13 05:54:56;;;;;;;5.18;4.68;;;;;;;;;;4975066;28;20257;-81
2021/04/13 05:57:27;;;;;;;7.60;5.90;;;;;;;;;;4974393;28;20233;-79
2021/04/13 05:59:53;;;;;;;6.23;5.47;;;;;;;;;;4972859;28;20805;-78
2021/04/13 06:02:20;;;;;;;7.50;5.90;;;;;;;;;;4959246;28;20454;-77
2021/04/13 06:04:49;;;;;;;5.90;5.27;;;;;;;;;;4962254;28;20541;-77
2021/04/13 06:07:15;;;;;;;9.83;5.90;;;;;;;;;;4960852;28;20851;-80
2021/04/13 06:09:41;;;;;;;6.70;6.10;;;;;;;;;;4961929;28;20434;-77
2021/04/13 06:12:08;;;;;;;6.40;5.80;;;;;;;;;;4960698;28;20445;-80
2021/04/13 06:14:34;;;;;;;6.83;6.23;;;;;;;;;;4961244;28;20466;-80
2021/04/13 06:17:00;;;;;;;6.30;5.67;;;;;;;;;;4963325;28;20857;-75
2021/04/13 06:19:26;;;;;;;6.70;6.10;;;;;;;;;;4943939;28;20505;-78
2021/04/13 06:21:53;;;;;;;10.33;6.83;;;;;;;;;;4960845;28;20443;-74
2021/04/13 06:24:19;;;;;;;6.80;6.13;;;;;;;;;;4961202;28;20426;-77
2021/04/13 06:26:45;;;;;;;8.00;7.23;;;;;;;;;;4957842;28;20968;-74
2021/04/13 06:29:11;;;;;;;8.03;7.23;;;;;;;;;;4954749;28;20463;-78
2021/04/13 06:31:37;;;;;;;9.53;7.30;;;;;;;;;;4965353;28;20447;-77
2021/04/13 06:34:03;;;;;;;7.90;7.10;;;;;;;;;;4905221;28;20938;-79
2021/04/13 06:36:30;;;;;;;8.53;7.37;;;;;;;;;;4957519;28;20836;-80
2021/04/13 06:38:57;;;;;;;8.20;7.40;;;;;;;;;;4956380;28;20450;-77
2021/04/13 06:41:42;;;;;;;7.50;6.90;;;;;;;;;;4955858;28;20457;-80
2021/04/13 06:44:08;;;;;;;8.50;7.23;;;;;;;;;;4954601;28;20945;-79
2021/04/13 06:46:41;;;;;;;8.67;7.77;;;;;;;;;;4954252;28;20450;-77
2021/04/13 06:49:07;;;;;;;9.00;8.20;;;;;;;;;;4956058;28;20458;-78
2021/04/13 06:51:38;;;;;;;8.30;7.37;;;;;;;;;;4955457;28;20539;-80
2021/04/13 06:54:11;;;;;;;9.50;8.50;;;;;;;;;;4942047;28;20443;-78
2021/04/13 06:56:55;;;;;;;8.80;7.87;;;;;;;;;;4956812;28;20483;-74
2021/04/13 06:59:31;;;;;;;8.70;7.90;;;;;;;;;;4953920;28;20450;-77
2021/04/13 07:01:57;;;;;;;9.00;8.20;;;;;;;;;;4958806;28;20451;-79
2021/04/13 07:04:25;;;;;;;9.73;8.73;;;;;;;;;;4953410;28;20967;-75
2021/04/13 07:07:05;;;;;;;8.43;7.73;;;;;;;;;;4954052;28;20459;-79
2021/04/13 07:09:38;;;;;;;10.50;9.37;;;;;;;;;;4956989;28;20498;-79
2021/04/13 07:12:24;;;;;;;8.87;7.80;;;;;;;;;;4961581;28;20431;-79
2021/04/13 07:14:50;;;;;;;10.10;9.17;;;;;;;;;;4959439;28;20993;-80
2021/04/13 07:17:36;;;;;;;9.30;8.30;;;;;;;;;;4960052;28;20489;-78
2021/04/13 07:20:06;;;;;;;8.93;8.23;;;;;;;;;;4959399;28;20965;-80
2021/04/13 07:22:32;;;;;;;9.13;8.33;;;;;;;;;;4962802;28;20419;-77
2021/04/13 07:25:17;;;;;;;11.37;10.37;;;;;;;;;;4975670;28;20456;-78
2021/04/13 07:27:54;;;;;;;8.73;7.93;;;;;;;;;;4964928;28;20449;-77
2021/04/13 07:30:24;;;;;;;10.50;8.40;;;;;;;;;;4957506;28;20455;-79
2021/04/13 07:32:55;;;;;;;9.50;8.50;;;;;;;;;;4961441;28;20506;-80
2021/04/13 07:35:22;;;;;;;9.80;8.90;;;;;;;;;;4963225;28;20481;-77
2021/04/13 07:37:51;;;;;;;11.30;8.87;;;;;;;;;;4959191;28;20438;-79
2021/04/13 07:40:22;;;;;;;10.73;9.60;;;;;;;;;;4955709;28;20810;-77
2021/04/13 07:43:04;;;;;;;9.60;8.80;;;;;;;;;;4958663;28;20924;-79
2021/04/13 07:45:52;;;;;;;9.07;8.23;;;;;;;;;;4965479;28;20469;-78
2021/04/13 07:48:20;;;;;;;10.37;9.33;;;;;;;;;;4965860;28;20443;-77
2021/04/13 07:50:59;;;;;;;10.27;9.27;;;;;;;;;;4964557;28;20448;-78
2021/04/13 07:53:28;;;;;;;11.93;9.00;;;;;;;;;;4957308;28;20443;-74
2021/04/13 07:56:00;;;;;;;12.03;9.17;;;;;;;;;;4953725;28;20490;-74
2021/04/13 07:58:37;;;;;;;13.43;9.37;;;;;;;;;;4958307;28;20918;-76
2021/04/13 08:01:06;;;;;;;9.97;8.67;;;;;;;;;;4956342;28;20466;-74
2021/04/13 08:03:32;;;;;;;9.47;8.50;;;;;;;;;;4954160;28;20451;-73
2021/04/13 08:06:00;;;;;;;9.57;8.67;;;;;;;;;;4956867;28;21050;-74
2021/04/13 08:08:41;;;;;;;10.40;9.40;;;;;;;;;;4955699;28;20470;-74
2021/04/13 08:11:10;;;;;;;11.37;9.20;;;;;;;;;;4957729;28;20474;-76
2021/04/13 08:13:37;;;;;;;9.83;8.83;;;;;;;;;;4960039;28;20441;-73
2021/04/13 08:16:03;;;;;;;10.73;9.73;;;;;;;;;;4956637;28;20493;-76
2021/04/13 08:18:40;;;;;;;9.70;8.70;;;;;;;;;;4940692;28;20927;-74
2021/04/13 08:21:21;;;;;;;12.77;9.43;;;;;;;;;;4963719;28;20456;-74
2021/04/13 08:23:48;;;;;;;10.73;9.70;;;;;;;;;;4969139;28;20445;-78
2021/04/13 08:26:26;;;;;;;10.37;9.47;;;;;;;;;;4953905;28;20431;-79
2021/04/13 08:28:56;;;;;;;10.37;9.30;;;;;;;;;;4963631;28;20445;-78
2021/04/13 08:34:34;;;;;;;12.50;11.20;;;;;;;;;;4960252;28;20450;-80
2021/04/13 08:37:00;;;;;;;11.40;10.30;;;;;;;;;;4976825;28;20457;-79
2021/04/13 08:39:32;;;;;;;10.67;9.57;;;;;;;;;;4962821;28;20442;-79
2021/04/13 08:42:19;;;;;;;12.10;10.90;;;;;;;;;;4968130;28;20465;-75
2021/04/13 08:44:49;;;;;;;11.70;10.50;;;;;;;;;;4958760;28;20187;-77
2021/04/13 08:47:21;;;;;;;10.63;9.63;;;;;;;;;;4963837;28;20946;-75
2021/04/13 08:49:49;;;;;;;8.23;7.17;;;;;;;;;;4959120;28;20439;-76
2021/04/13 08:52:19;;;;;;;7.93;6.65;;;;;;;;;;4964404;28;20443;-75
2021/04/13 08:54:48;;;;;;;6.03;5.40;;;;;;;;;;4946262;28;20641;-77
2021/04/13 08:57:21;;;;;;;7.93;6.40;;;;;;;;;;4961177;28;20571;-78
2021/04/13 08:59:51;;;;;;;7.13;6.43;;;;;;;;;;4957523;28;20202;-76
2021/04/13 09:02:29;;;;;;;7.53;6.82;;;;;;;;;;4966885;28;20245;-77
2021/04/13 09:05:05;;;;;;;8.48;7.68;;;;;;;;;;4963655;28;20562;-77
2021/04/13 09:07:39;;;;;;;8.15;7.30;;;;;;;;;;4962480;28;20191;-76
2021/04/13 09:10:15;;;;;;;8.60;7.55;;;;;;;;;;4960485;28;20548;-77
2021/04/13 09:12:42;;;;;;;10.27;7.07;;;;;;;;;;4962858;28;20178;-77
2021/04/13 09:15:22;;;;;;;8.15;7.35;;;;;;;;;;4956887;28;20242;-73
2021/04/13 09:17:58;;;;;;;10.13;9.13;;;;;;;;;;4959588;28;20188;-73
2021/04/13 09:20:27;;;;;;;9.02;8.13;;;;;;;;;;4965283;28;20194;-78
2021/04/13 09:23:10;;;;;;;10.32;9.10;;;;;;;;;;4963974;28;20645;-78
2021/04/13 09:25:42;;;;;;;10.73;9.68;;;;;;;;;;4943262;28;20568;-79
2021/04/13 09:28:10;;;;;;;12.85;11.00;;;;;;;;;;4964132;28;20194;-79
2021/04/13 09:30:44;;;;;;;11.50;10.25;;;;;;;;;;4961442;28;20194;-77
2021/04/13 09:33:12;;;;;;;10.18;9.18;;;;;;;;;;4958961;28;20186;-77
2021/04/13 09:35:38;;;;;;;12.02;10.30;;;;;;;;;;4940005;28;20219;-75
2021/04/13 09:38:14;;;;;;;14.17;10.00;;;;;;;;;;4963288;28;20190;-79
2021/04/13 09:40:59;;;;;;;11.27;10.07;;;;;;;;;;4959464;28;20595;-77
2021/04/13 09:43:30;;;;;;;11.02;10.02;;;;;;;;;;4961605;28;20196;-77
2021/04/13 09:46:02;;;;;;;9.47;8.53;;;;;;;;;;4962297;28;20198;-77
2021/04/13 09:48:40;;;;;;;10.10;9.03;;;;;;;;;;4962390;28;20453;-76
2021/04/13 09:51:12;;;;;;;10.30;9.20;;;;;;;;;;4956833;28;20857;-77
2021/04/13 09:53:51;;;;;;;9.33;8.50;;;;;;;;;;4959066;28;20450;-77
2021/04/13 09:56:36;;;;;;;10.23;8.57;;;;;;;;;;4961904;28;20477;-76
2021/04/13 09:59:11;;;;;;;11.90;9.70;;;;;;;;;;4958681;28;20529;-76
2021/04/13 10:01:40;;;;;;;10.77;8.70;;;;;;;;;;4958504;28;20446;-74
2021/04/13 10:04:21;;;;;;;8.73;8.03;;;;;;;;;;4958927;28;20442;-75
2021/04/13 10:07:05;;;;;;;9.67;8.50;;;;;;;;;;4958514;28;21278;-75
2021/04/13 10:09:40;;;;;;;9.30;7.47;;;;;;;;;;4957204;28;20466;-74
2021/04/13 10:12:20;;;;;;;8.90;7.87;;;;;;;;;;4953156;28;20458;-76
2021/04/13 10:14:54;;;;;;;8.23;7.43;;;;;;;;;;4958214;28;20529;-74
2021/04/13 10:17:29;;;;;;;8.03;7.23;;;;;;;;;;4958258;28;20446;-78
2021/04/13 10:19:55;;;;;;;8.40;6.70;;;;;;;;;;4961469;28;20461;-77
2021/04/13 10:22:31;;;;;;;9.90;7.20;;;;;;;;;;4957836;28;20455;-77
2021/04/13 10:24:57;;;;;;;8.47;7.57;;;;;;;;;;4951700;28;20457;-75
2021/04/13 10:27:49;;;;;;;7.10;6.40;;;;;;;;;;4953580;28;20926;-75
2021/04/13 10:30:30;;;;;;;10.10;8.10;;;;;;;;;;4953310;28;20439;-74
2021/04/13 10:33:02;;;;;;;12.43;6.63;;;;;;;;;;4958648;28;20446;-79
2021/04/13 10:35:45;;;;;;;6.90;6.20;;;;;;;;;;4960270;28;20481;-73
2021/04/13 10:38:17;;;;;;;9.10;6.90;;;;;;;;;;4959106;28;20442;-76
2021/04/13 10:40:43;;;;;;;7.63;6.93;;;;;;;;;;4958032;28;20446;-74
2021/04/13 10:43:27;;;;;;;7.63;6.40;;;;;;;;;;4960490;28;20446;-74
2021/04/13 10:46:17;;;;;;;7.20;6.30;;;;;;;;;;4958265;28;20447;-77
2021/04/13 10:49:03;;;;;;;10.33;7.60;;;;;;;;;;4954436;28;20452;-77
2021/04/13 10:51:29;;;;;;;9.07;8.23;;;;;;;;;;4958246;28;20445;-73
2021/04/13 10:54:13;;;;;;;8.00;7.20;;;;;;;;;;4958416;28;20448;-76
2021/04/13 10:56:48;;;;;;;7.00;6.30;;;;;;;;;;4938225;28;20485;-74
2021/04/13 10:59:30;;;;;;;7.93;7.00;;;;;;;;;;4956189;28;20456;-75
2021/04/13 11:02:02;;;;;;;10.93;7.20;;;;;;;;;;4957454;28;20454;-74
2021/04/13 11:04:46;;;;;;;8.50;7.60;;;;;;;;;;4959710;28;20855;-77
2021/04/13 11:07:31;;;;;;;11.00;7.30;;;;;;;;;;4957993;28;20496;-76
2021/04/13 11:10:09;;;;;;;8.10;6.70;;;;;;;;;;4960662;28;20447;-77
2021/04/13 11:12:53;;;;;;;7.33;6.60;;;;;;;;;;4948180;28;20462;-75
2021/04/13 11:15:35;;;;;;;9.30;7.60;;;;;;;;;;4958812;28;20466;-77
2021/04/13 11:18:05;;;;;;;10.73;7.90;;;;;;;;;;4956600;28;20543;-76
2021/04/13 11:20:56;;;;;;;7.73;6.50;;;;;;;;;;4937765;28;20856;-76
2021/04/13 11:23:31;;;;;;;11.33;6.40;;;;;;;;;;4958828;28;20453;-77
2021/04/13 11:26:00;;;;;;;5.90;4.70;;;;;;;;;;4958292;28;20440;-74
2021/04/13 11:28:29;;;;;;;4.97;4.57;;;;;;;;;;4956565;28;20491;-75
2021/04/13 11:31:19;;;;;;;4.33;4.03;;;;;;;;;;4954700;28;20436;-78
2021/04/13 11:33:57;;;;;;;6.63;5.93;;;;;;;;;;4958130;28;20461;-80
2021/04/13 11:36:23;;;;;;;6.00;5.50;;;;;;;;;;4960785;28;20488;-78
2021/04/13 11:38:50;;;;;;;6.80;5.77;;;;;;;;;;4958231;28;20584;-77
2021/04/13 11:41:35;;;;;;;6.33;5.73;;;;;;;;;;4953050;28;20524;-76
2021/04/13 11:44:03;;;;;;;6.53;5.77;;;;;;;;;;4935852;28;20457;-74
2021/04/13 11:46:53;;;;;;;5.17;4.47;;;;;;;;;;4959838;28;20438;-74
2021/04/13 11:49:21;;;;;;;7.80;5.27;;;;;;;;;;4959410;28;20449;-76
2021/04/13 11:51:51;;;;;;;5.20;4.80;;;;;;;;;;4960088;28;20457;-78
2021/04/13 11:54:52;;;;;;;4.93;4.37;;;;;;;;;;4959109;28;20466;-79
2021/04/13 11:57:22;;;;;;;7.00;4.80;;;;;;;;;;4907506;28;20525;-75
2021/04/13 12:00:07;;;;;;;5.63;5.13;;;;;;;;;;4956076;28;20439;-74
2021/04/13 12:02:34;;;;;;;4.30;3.90;;;;;;;;;;4957292;28;20485;-73
2021/04/13 12:05:00;;;;;;;5.70;4.57;;;;;;;;;;4951706;28;20439;-73
2021/04/13 12:07:44;;;;;;;4.17;3.87;;;;;;;;;;4959961;28;20439;-73
2021/04/13 12:10:13;;;;;;;3.87;3.57;;;;;;;;;;4959070;28;20526;-73
2021/04/13 12:12:39;;;;;;;4.57;4.17;;;;;;;;;;4962699;28;20431;-77
2021/04/13 12:15:05;;;;;;;4.63;4.23;;;;;;;;;;4944447;28;20465;-78
2021/04/13 12:17:42;;;;;;;4.43;4.03;;;;;;;;;;4957181;28;20754;-73
2021/04/13 12:20:34;;;;;;;4.20;3.90;;;;;;;;;;4960782;28;20441;-77
2021/04/13 12:23:03;;;;;;;6.07;4.70;;;;;;;;;;4962195;28;20449;-78
2021/04/13 12:25:44;;;;;;;5.20;4.80;;;;;;;;;;4954664;28;20997;-73
2021/04/13 12:28:18;;;;;;;4.30;3.90;;;;;;;;;;4964272;28;20449;-73
2021/04/13 12:30:44;;;;;;;4.97;4.57;;;;;;;;;;4962199;28;20494;-73
2021/04/13 12:33:25;;;;;;;4.90;4.50;;;;;;;;;;4961848;28;20511;-74
2021/04/13 12:35:53;;;;;;;5.37;4.87;;;;;;;;;;4958806;28;20791;-77
2021/04/13 12:38:58;;;;;;;6.10;5.50;;;;;;;;;;4958691;28;20509;-75
2021/04/13 12:41:27;;;;;;;9.23;5.50;;;;;;;;;;4908546;29;20545;-73
2021/04/13 12:43:58;;;;;;;5.93;5.43;;;;;;;;;;4947445;28;20459;-77
2021/04/13 12:46:38;;;;;;;5.30;4.83;;;;;;;;;;4961882;28;20938;-77
2021/04/13 12:49:13;;;;;;;7.47;4.97;;;;;;;;;;4947412;28;20435;-74
2021/04/13 12:51:58;;;;;;;5.50;4.97;;;;;;;;;;4964250;28;20441;-74
2021/04/13 12:54:25;;;;;;;5.93;5.40;;;;;;;;;;4958646;28;20514;-79
2021/04/13 12:56:54;;;;;;;5.53;5.03;;;;;;;;;;4959691;28;20540;-73
2021/04/13 12:59:22;;;;;;;4.40;4.10;;;;;;;;;;4945697;28;20450;-73
2021/04/13 13:01:48;;;;;;;5.00;4.60;;;;;;;;;;4958879;28;20845;-75
2021/04/13 13:04:16;;;;;;;5.40;4.90;;;;;;;;;;4941759;28;20479;-76
2021/04/13 13:06:46;;;;;;;4.03;3.73;;;;;;;;;;4963496;28;20446;-75
2021/04/13 13:09:32;;;;;;;4.93;4.43;;;;;;;;;;4957759;28;20454;-79
2021/04/13 13:12:00;;;;;;;7.20;4.50;;;;;;;;;;4954026;28;20451;-76
2021/04/13 13:14:27;;;;;;;3.33;3.10;;;;;;;;;;4960259;28;21073;-80
2021/04/13 13:16:55;;;;;;;4.57;4.07;;;;;;;;;;4967288;28;20503;-78
2021/04/13 13:19:29;;;;;;;3.90;3.60;;;;;;;;;;4969053;28;20431;-80
2021/04/13 13:21:57;;;;;;;2.97;2.60;;;;;;;;;;4956357;28;20795;-78
2021/04/13 13:24:32;;;;;;;2.73;2.43;;;;;;;;;;4954761;28;20462;-77
2021/04/13 13:26:58;;;;;;;3.83;3.03;;;;;;;;;;4954056;28;20433;-75
2021/04/13 13:29:24;;;;;;;2.70;2.30;;;;;;;;;;4951257;28;21018;-78
2021/04/13 13:31:50;;;;;;;3.50;3.13;;;;;;;;;;4951581;28;20509;-78
2021/04/13 13:34:17;;;;;;;3.13;2.80;;;;;;;;;;4951980;28;20954;-77
2021/04/13 13:36:45;;;;;;;6.40;2.67;;;;;;;;;;4950450;28;20980;-75
2021/04/13 13:39:31;;;;;;;5.73;5.17;;;;;;;;;;4951526;28;20453;-81
2021/04/13 13:42:02;;;;;;;5.03;4.53;;;;;;;;;;4950016;28;20454;-77
2021/04/13 13:44:31;;;;;;;6.77;4.17;;;;;;;;;;4934871;28;20528;-79
2021/04/13 13:47:05;;;;;;;4.63;4.23;;;;;;;;;;4954738;28;20451;-75
2021/04/13 13:49:40;;;;;;;6.50;4.20;;;;;;;;;;4953197;28;20445;-76
2021/04/13 13:52:08;;;;;;;3.80;3.50;;;;;;;;;;4949779;28;20866;-78
2021/04/13 13:54:35;;;;;;;2.90;2.70;;;;;;;;;;4949494;28;22213;-78
2021/04/13 13:57:10;;;;;;;2.73;2.50;;;;;;;;;;4948499;28;20593;-79
2021/04/13 13:59:51;;;;;;;5.10;3.47;;;;;;;;;;4952526;28;20540;-78
2021/04/13 14:02:25;;;;;;;3.60;3.03;;;;;;;;;;4950883;28;20437;-77
2021/04/13 14:04:54;;;;;;;4.80;4.10;;;;;;;;;;4951120;28;20459;-77
2021/04/13 14:07:31;;;;;;;4.83;3.33;;;;;;;;;;4950517;28;20463;-78
2021/04/13 14:10:12;;;;;;;4.53;4.07;;;;;;;;;;4952524;28;20490;-76
2021/04/13 14:12:40;;;;;;;3.87;3.27;;;;;;;;;;4948370;28;20453;-82
2021/04/13 14:15:18;;;;;;;3.67;3.30;;;;;;;;;;4951858;28;20482;-72
2021/04/13 14:17:45;;;;;;;5.60;3.93;;;;;;;;;;4951355;28;20592;-78
2021/04/13 14:20:13;;;;;;;3.43;3.00;;;;;;;;;;4951465;28;20530;-74
2021/04/13 14:22:39;;;;;;;5.47;3.30;;;;;;;;;;4951284;28;20957;-82
2021/04/13 14:25:12;;;;;;;3.77;3.20;;;;;;;;;;4954600;28;20442;-75
2021/04/13 14:27:39;;;;;;;3.40;2.93;;;;;;;;;;4950147;28;20440;-75
2021/04/13 14:30:26;;;;;;;2.50;2.30;;;;;;;;;;4952326;28;20494;-75
2021/04/13 14:32:53;;;;;;;3.90;2.83;;;;;;;;;;4958389;28;20491;-74
2021/04/13 14:35:19;;;;;;;3.80;2.70;;;;;;;;;;4954721;28;20468;-76
2021/04/13 14:37:45;;;;;;;2.47;2.27;;;;;;;;;;4952686;28;20822;-78
2021/04/13 14:40:15;;;;;;;2.80;2.50;;;;;;;;;;4953572;28;20452;-75
2021/04/13 14:42:42;;;;;;;2.90;2.40;;;;;;;;;;4951676;28;20462;-78
2021/04/13 14:45:10;;;;;;;4.63;4.23;;;;;;;;;;4951907;28;20439;-79
2021/04/13 14:47:38;;;;;;;2.70;2.50;;;;;;;;;;4956249;28;20439;-77
2021/04/13 14:50:13;;;;;;;4.90;3.77;;;;;;;;;;4953021;28;20943;-74
2021/04/13 14:52:42;;;;;;;3.93;3.53;;;;;;;;;;4954023;28;20459;-80
2021/04/13 14:55:09;;;;;;;4.40;4.00;;;;;;;;;;4937819;28;20531;-82
2021/04/13 14:57:35;;;;;;;4.17;3.87;;;;;;;;;;4947978;28;20498;-76
2021/04/13 15:00:02;;;;;;;6.40;3.60;;;;;;;;;;4935030;28;20451;-74
2021/04/13 15:02:30;;;;;;;3.23;2.93;;;;;;;;;;4935007;28;20491;-75
2021/04/13 15:04:56;;;;;;;5.03;2.60;;;;;;;;;;4918504;28;21025;-75
2021/04/13 15:07:22;;;;;;;3.17;2.30;;;;;;;;;;4937208;28;20454;-75
2021/04/13 15:09:48;;;;;;;3.53;2.60;;;;;;;;;;4933556;28;20443;-75